Time;durP1;ratioP1;P1;durP2;ratioP2;P2;SDS_P1;SDS_P2;PMS_P1;PMS_P2;Temp;Humidity;BMP_temperature;BMP_pressure;BME280_temperature;BME280_humidity;BME280_pressure;Samples;Min_cycle;Max_cycle;Signal;HPM_P1;HPM_P2
2022/03/08 00:00:27;;;;;;;11.63;6.78;;;;;;;4.37;66.64;100138.19;5043462;28;20037;-83
2022/03/08 00:02:54;;;;;;;35.58;8.20;;;;;;;4.35;66.97;100132.19;5042719;28;20056;-82
2022/03/08 00:05:25;;;;;;;19.05;7.63;;;;;;;4.36;66.35;100133.84;5027586;28;20048;-82
2022/03/08 00:07:52;;;;;;;14.55;7.40;;;;;;;4.40;66.60;100123.75;5045878;28;20500;-84
2022/03/08 00:10:17;;;;;;;13.43;7.50;;;;;;;4.45;65.93;100118.81;5045911;28;20033;-83
2022/03/08 00:12:46;;;;;;;15.52;7.90;;;;;;;4.34;65.98;100095.91;5041591;28;20033;-83
2022/03/08 00:15:15;;;;;;;14.05;8.20;;;;;;;4.44;65.58;100105.63;5045133;28;20188;-83
2022/03/08 00:17:41;;;;;;;17.05;9.13;;;;;;;4.37;65.48;100094.78;5060765;28;20032;-82
2022/03/08 00:20:08;;;;;;;18.80;9.07;;;;;;;4.34;65.53;100079.09;5046917;28;20040;-84
2022/03/08 00:22:35;;;;;;;15.23;7.57;;;;;;;4.34;65.32;100066.66;5063191;28;20028;-83
2022/03/08 00:25:01;;;;;;;16.23;8.25;;;;;;;4.36;65.52;100080.59;5033404;28;20508;-84
2022/03/08 00:27:28;;;;;;;15.27;8.55;;;;;;;4.40;64.48;100049.22;5066748;28;20044;-83
2022/03/08 00:29:53;;;;;;;12.93;7.25;;;;;;;4.36;64.73;100047.84;5061770;28;20028;-82
2022/03/08 00:32:19;;;;;;;17.83;7.70;;;;;;;4.37;64.15;100050.38;5050766;28;20090;-83
2022/03/08 00:34:45;;;;;;;14.98;8.07;;;;;;;4.51;63.29;100034.84;5047933;28;20059;-83
2022/03/08 00:37:11;;;;;;;13.10;7.18;;;;;;;4.50;63.58;100030.47;5066345;28;20032;-83
2022/03/08 00:39:36;;;;;;;8.68;5.85;;;;;;;4.54;63.81;100023.88;5050052;28;20443;-84
2022/03/08 00:42:02;;;;;;;16.35;8.05;;;;;;;4.53;64.28;100012.38;5049575;28;20393;-80
2022/03/08 00:44:28;;;;;;;17.92;8.27;;;;;;;4.49;63.93;100008.34;5048009;28;20047;-82
2022/03/08 00:46:54;;;;;;;18.27;8.40;;;;;;;4.45;64.28;99999.03;5044601;28;20218;-82
2022/03/08 00:49:19;;;;;;;18.70;9.35;;;;;;;4.49;64.11;100002.19;5044598;28;20417;-82
2022/03/08 00:51:45;;;;;;;14.60;8.07;;;;;;;4.45;64.38;99988.38;5029503;28;20101;-82
2022/03/08 00:54:11;;;;;;;20.63;10.75;;;;;;;4.50;65.12;99988.75;5064800;28;20128;-81
2022/03/08 00:56:37;;;;;;;16.23;7.88;;;;;;;4.46;65.06;99975.91;5033202;28;20094;-82
2022/03/08 00:59:02;;;;;;;21.33;8.27;;;;;;;4.51;64.88;99962.94;5031603;28;20040;-82
2022/03/08 01:01:28;;;;;;;18.33;8.85;;;;;;;4.54;65.34;99970.63;5028757;28;20036;-82
2022/03/08 01:03:54;;;;;;;12.75;6.75;;;;;;;4.49;66.14;99957.78;5024620;28;20040;-85
2022/03/08 01:06:20;;;;;;;15.85;7.85;;;;;;;4.54;66.26;99965.31;5042918;28;20082;-82
2022/03/08 01:08:45;;;;;;;17.60;8.25;;;;;;;4.55;66.33;99958.97;5049235;28;20028;-82
2022/03/08 01:11:11;;;;;;;17.10;8.07;;;;;;;4.54;67.18;99941.34;5046057;28;20028;-83
2022/03/08 01:13:39;;;;;;;13.63;7.28;;;;;;;4.53;67.76;99931.69;5032343;28;20398;-82
2022/03/08 01:16:05;;;;;;;16.25;8.00;;;;;;;4.48;67.88;99913.53;5058382;28;20040;-82
2022/03/08 01:18:30;;;;;;;19.95;9.98;;;;;;;4.54;68.57;99922.69;5057413;28;20086;-81
2022/03/08 01:20:57;;;;;;;25.55;10.23;;;;;;;4.36;68.81;99886.31;5027965;28;20393;-81
2022/03/08 01:23:23;;;;;;;24.02;10.63;;;;;;;4.30;70.21;99889.63;5034969;28;20032;-82
2022/03/08 01:25:49;;;;;;;18.67;8.98;;;;;;;4.10;71.29;99874.84;5032271;28;20047;-82
2022/03/08 01:28:14;;;;;;;18.38;10.40;;;;;;;3.99;72.36;99865.28;5049542;28;20036;-82
2022/03/08 01:30:42;;;;;;;25.80;10.80;;;;;;;3.94;72.47;99857.78;5047351;28;20397;-83
2022/03/08 01:33:10;;;;;;;20.70;10.15;;;;;;;3.94;72.47;99839.19;5034825;28;20552;-82
2022/03/08 01:35:36;;;;;;;16.63;9.50;;;;;;;3.93;72.78;99834.84;5067717;28;20028;-82
2022/03/08 01:38:02;;;;;;;22.05;10.60;;;;;;;3.94;73.11;99825.03;5050998;28;20094;-82
2022/03/08 01:40:27;;;;;;;18.27;9.50;;;;;;;3.96;72.82;99805.25;5018234;28;20802;-83
2022/03/08 01:42:53;;;;;;;23.13;12.18;;;;;;;3.87;74.08;99816.84;5076177;28;20505;-82
2022/03/08 01:45:21;;;;;;;20.50;9.35;;;;;;;3.70;74.78;99815.88;5050892;28;20040;-81
2022/03/08 01:47:47;;;;;;;22.95;11.07;;;;;;;3.67;75.03;99792.25;5035771;28;20040;-81
2022/03/08 01:50:14;;;;;;;19.83;9.63;;;;;;;3.70;75.19;99829.16;5069436;28;20028;-81
2022/03/08 01:52:40;;;;;;;17.15;8.13;;;;;;;3.66;75.37;99806.56;5063534;28;20073;-83
2022/03/08 01:55:07;;;;;;;19.92;10.63;;;;;;;3.66;74.81;99805.72;5049638;28;20032;-83
2022/03/08 01:57:33;;;;;;;20.08;9.10;;;;;;;3.51;75.53;99761.06;5034656;28;20039;-84
2022/03/08 01:59:59;;;;;;;21.00;11.27;;;;;;;3.69;75.14;99779.66;5067115;28;20031;-84
2022/03/08 02:02:25;;;;;;;24.33;11.07;;;;;;;3.70;75.55;99791.94;5050934;28;20090;-85
2022/03/08 02:04:51;;;;;;;24.73;12.50;;;;;;;3.78;74.53;99761.94;5066035;28;20386;-82
2022/03/08 02:07:17;;;;;;;25.83;10.45;;;;;;;3.72;74.86;99755.41;5033077;28;20032;-83
2022/03/08 02:09:42;;;;;;;16.08;8.20;;;;;;;3.81;75.92;99761.63;5049277;28;20368;-82
2022/03/08 02:12:09;;;;;;;27.35;12.05;;;;;;;3.86;75.71;99763.81;5049386;28;20466;-82
2022/03/08 02:14:35;;;;;;;15.52;7.45;;;;;;;3.81;76.26;99750.13;5047229;28;20035;-83
2022/03/08 02:17:00;;;;;;;12.88;8.20;;;;;;;3.78;76.76;99740.66;5067096;28;20032;-82
2022/03/08 02:19:26;;;;;;;18.17;11.00;;;;;;;3.82;76.70;99730.56;5063500;28;20059;-84
2022/03/08 02:21:54;;;;;;;22.27;11.55;;;;;;;3.93;76.66;99722.28;5065467;28;20035;-82
2022/03/08 02:24:20;;;;;;;22.60;10.93;;;;;;;3.95;77.20;99713.16;5050364;28;20497;-83
2022/03/08 02:26:46;;;;;;;22.02;12.82;;;;;;;4.08;77.15;99710.06;5047562;28;20060;-83
2022/03/08 02:29:12;;;;;;;26.65;10.25;;;;;;;4.02;76.86;99683.25;5023336;28;20076;-81
2022/03/08 02:31:38;;;;;;;26.55;12.27;;;;;;;4.11;77.00;99692.97;5051428;28;20325;-82
2022/03/08 02:34:03;;;;;;;26.70;12.82;;;;;;;4.03;77.31;99683.13;5048507;28;20102;-84
2022/03/08 02:36:30;;;;;;;33.03;12.90;;;;;;;3.89;77.20;99665.94;5031325;28;20375;-82
2022/03/08 02:38:55;;;;;;;34.85;15.93;;;;;;;3.96;78.45;99669.59;5083502;28;20478;-83
2022/03/08 02:41:22;;;;;;;24.67;11.82;;;;;;;3.96;78.96;99680.25;5036440;28;20131;-82
2022/03/08 02:43:47;;;;;;;15.75;9.07;;;;;;;4.00;78.89;99656.03;5066719;28;20033;-81
2022/03/08 02:46:13;;;;;;;31.90;15.00;;;;;;;4.11;78.73;99655.72;5034116;28;20393;-81
2022/03/08 02:48:39;;;;;;;29.08;14.55;;;;;;;4.09;79.09;99641.75;5051678;28;20432;-83
2022/03/08 02:51:04;;;;;;;34.33;15.98;;;;;;;4.09;79.30;99637.25;5033910;28;20044;-82
2022/03/08 02:53:33;;;;;;;31.25;14.85;;;;;;;4.06;79.79;99636.75;5051290;28;20103;-82
2022/03/08 02:55:59;;;;;;;35.63;14.10;;;;;;;3.97;80.53;99618.09;5035620;28;20191;-81
2022/03/08 02:58:24;;;;;;;30.38;14.68;;;;;;;3.82;81.35;99598.44;5048720;28;20435;-82
2022/03/08 03:00:50;;;;;;;37.33;16.92;;;;;;;3.84;82.00;99595.63;5048108;28;20036;-82
2022/03/08 03:03:16;;;;;;;28.80;12.98;;;;;;;3.86;82.76;99599.75;5032751;28;20406;-83
2022/03/08 03:05:42;;;;;;;28.25;15.60;;;;;;;3.85;82.91;99592.78;5061802;28;20457;-82
2022/03/08 03:08:09;;;;;;;28.73;13.18;;;;;;;3.56;83.37;99541.84;5034414;28;20126;-81
2022/03/08 03:10:35;;;;;;;25.30;13.70;;;;;;;3.76;83.94;99567.19;5050268;28;20032;-81
2022/03/08 03:13:00;;;;;;;22.77;11.75;;;;;;;3.70;83.77;99549.19;5048572;28;20353;-81
2022/03/08 03:15:27;;;;;;;36.15;15.98;;;;;;;3.72;84.19;99571.97;5047159;28;20059;-81
2022/03/08 03:17:53;;;;;;;35.45;15.60;;;;;;;3.61;84.24;99556.31;5031415;28;20565;-82
2022/03/08 03:20:21;;;;;;;36.22;15.10;;;;;;;3.61;84.94;99552.84;5065448;28;20119;-81
2022/03/08 03:22:48;;;;;;;31.33;15.13;;;;;;;3.60;85.99;99557.31;5061897;28;20383;-81
2022/03/08 03:25:15;;;;;;;34.65;14.18;;;;;;;3.56;85.56;99565.75;5063860;28;20111;-81
2022/03/08 03:27:41;;;;;;;39.83;15.40;;;;;;;3.49;86.35;99534.53;5066310;28;20123;-83
2022/03/08 03:30:10;;;;;;;48.63;18.10;;;;;;;3.59;86.17;99547.66;5049604;28;20102;-81
2022/03/08 03:32:36;;;;;;;36.78;14.30;;;;;;;3.55;86.37;99537.50;5052138;28;20025;-81
2022/03/08 03:35:03;;;;;;;41.40;16.17;;;;;;;3.58;87.24;99559.28;5046386;28;20032;-81
2022/03/08 03:37:29;;;;;;;17.45;10.98;;;;;;;3.39;90.14;99563.03;5031645;28;20123;-83
2022/03/08 03:39:55;;;;;;;29.50;13.52;;;;;;;3.14;93.35;99563.91;5049822;28;20127;-82
2022/03/08 03:42:20;;;;;;;38.10;14.43;;;;;;;2.93;95.20;99572.22;5049445;28;20041;-84
2022/03/08 03:44:46;;;;;;;27.52;13.68;;;;;;;2.73;98.47;99547.72;5046520;28;20037;-82
2022/03/08 03:47:12;;;;;;;45.72;19.38;;;;;;;2.60;100.00;99538.31;5068025;28;20089;-82
2022/03/08 03:49:37;;;;;;;28.50;14.93;;;;;;;2.43;100.00;99517.94;5048058;28;20035;-82
2022/03/08 03:52:04;;;;;;;32.65;14.35;;;;;;;2.27;100.00;99525.78;5031589;28;20405;-81
2022/03/08 03:54:29;;;;;;;46.05;17.23;;;;;;;2.23;100.00;99506.69;5045157;28;21707;-83
2022/03/08 03:56:55;;;;;;;47.15;18.42;;;;;;;2.14;100.00;99492.53;5049817;28;20466;-82
2022/03/08 03:59:21;;;;;;;41.00;14.50;;;;;;;1.89;100.00;99467.63;5027014;28;20064;-82
2022/03/08 04:01:46;;;;;;;41.47;15.25;;;;;;;1.71;100.00;99480.03;5048529;28;20048;-82
2022/03/08 04:04:12;;;;;;;41.33;17.60;;;;;;;1.58;100.00;99488.31;5031820;28;20052;-83
2022/03/08 04:06:38;;;;;;;39.72;14.65;;;;;;;1.51;100.00;99501.34;5033777;28;20040;-82
2022/03/08 04:09:04;;;;;;;55.28;19.23;;;;;;;1.59;100.00;99503.25;5046508;28;20043;-83
2022/03/08 04:11:30;;;;;;;57.00;17.70;;;;;;;1.67;100.00;99492.75;5053351;28;20035;-82
2022/03/08 04:13:56;;;;;;;62.67;20.33;;;;;;;1.68;100.00;99478.50;5044541;28;20048;-82
2022/03/08 04:16:21;;;;;;;56.33;18.88;;;;;;;1.60;100.00;99475.78;5063902;28;20032;-83
2022/03/08 04:18:47;;;;;;;65.93;24.58;;;;;;;1.38;100.00;99437.31;5046771;28;20541;-83
2022/03/08 04:21:13;;;;;;;31.98;11.50;;;;;;;1.34;100.00;99453.63;5046928;28;20048;-82
2022/03/08 04:23:41;;;;;;;54.10;18.13;;;;;;;1.06;100.00;99414.78;5033684;28;20037;-82
2022/03/08 04:26:07;;;;;;;54.97;19.10;;;;;;;0.86;100.00;99397.31;5045226;28;20105;-83
2022/03/08 04:28:32;;;;;;;54.88;16.48;;;;;;;1.03;100.00;99406.28;5049459;28;20036;-83
2022/03/08 04:30:58;;;;;;;66.75;21.20;;;;;;;1.19;100.00;99395.91;5033232;28;20082;-83
2022/03/08 04:33:23;;;;;;;50.67;20.15;;;;;;;1.41;100.00;99384.03;5066607;28;20032;-82
2022/03/08 04:35:49;;;;;;;38.88;14.50;;;;;;;1.54;100.00;99386.31;5064345;28;20530;-81
2022/03/08 04:38:15;;;;;;;55.25;17.63;;;;;;;1.60;100.00;99391.00;5068818;28;20067;-82
2022/03/08 04:40:41;;;;;;;56.20;20.67;;;;;;;1.59;100.00;99384.03;5055751;28;20036;-82
2022/03/08 04:43:07;;;;;;;57.42;18.73;;;;;;;1.60;100.00;99375.09;5051997;28;20567;-82
2022/03/08 04:45:32;;;;;;;54.33;19.27;;;;;;;1.65;100.00;99372.00;5050683;28;20041;-82
2022/03/08 04:47:58;;;;;;;59.72;18.98;;;;;;;1.65;100.00;99385.25;5060076;28;20066;-83
2022/03/08 04:50:24;;;;;;;61.13;20.92;;;;;;;1.62;100.00;99361.72;5072454;28;20397;-82
2022/03/08 04:52:50;;;;;;;77.50;23.85;;;;;;;1.57;100.00;99348.09;5040299;28;20032;-82
2022/03/08 04:55:17;;;;;;;76.40;26.15;;;;;;;1.58;100.00;99349.75;5037632;28;20076;-82
2022/03/08 04:57:42;;;;;;;84.10;26.33;;;;;;;1.68;100.00;99351.31;5035542;28;20040;-82
2022/03/08 05:00:13;;;;;;;51.00;17.23;;;;;;;1.61;100.00;99357.38;5040896;28;20153;-82
2022/03/08 05:02:40;;;;;;;46.80;17.50;;;;;;;1.58;100.00;99345.25;5053151;28;20039;-82
2022/03/08 05:05:08;;;;;;;72.68;21.60;;;;;;;1.41;100.00;99341.66;5070163;28;20043;-81
2022/03/08 05:07:38;;;;;;;62.42;21.60;;;;;;;1.19;100.00;99342.94;5069922;28;20033;-81
2022/03/08 05:10:07;;;;;;;89.00;22.92;;;;;;;1.26;100.00;99343.16;5036222;28;20093;-82
2022/03/08 05:12:34;;;;;;;77.68;23.02;;;;;;;1.31;100.00;99335.59;5051587;28;20118;-81
2022/03/08 05:14:59;;;;;;;79.07;24.63;;;;;;;1.11;100.00;99313.72;5035044;28;20043;-82
2022/03/08 05:17:25;;;;;;;70.45;19.55;;;;;;;1.11;100.00;99329.59;5048388;28;20048;-81
2022/03/08 05:19:56;;;;;;;91.45;23.85;;;;;;;1.09;100.00;99324.47;5069477;28;21398;-81
2022/03/08 05:22:24;;;;;;;82.20;21.63;;;;;;;0.98;100.00;99303.53;5051199;28;20385;-82
2022/03/08 05:24:50;;;;;;;67.82;18.83;;;;;;;1.00;100.00;99314.78;5048638;28;20053;-81
2022/03/08 05:27:15;;;;;;;80.32;18.83;;;;;;;1.05;100.00;99303.75;5031822;28;20397;-82
2022/03/08 05:29:41;;;;;;;57.17;16.75;;;;;;;1.21;100.00;99298.59;5047884;28;20425;-81
2022/03/08 05:32:07;;;;;;;61.55;20.05;;;;;;;1.40;100.00;99294.13;5031531;28;20032;-81
2022/03/08 05:34:33;;;;;;;58.92;19.38;;;;;;;1.65;100.00;99298.63;5060688;28;20032;-82
2022/03/08 05:36:58;;;;;;;54.70;19.58;;;;;;;1.83;100.00;99281.88;5053716;28;20031;-82
2022/03/08 05:39:24;;;;;;;75.97;21.10;;;;;;;2.04;100.00;99274.38;5052512;28;20485;-82
2022/03/08 05:41:50;;;;;;;57.00;18.08;;;;;;;2.13;100.00;99265.47;5053733;28;20068;-83
2022/03/08 05:44:18;;;;;;;61.15;19.77;;;;;;;2.28;99.90;99256.94;5055748;28;20809;-83
2022/03/08 05:46:43;;;;;;;46.67;17.08;;;;;;;2.46;100.00;99249.72;5066954;28;20029;-82
2022/03/08 05:49:09;;;;;;;65.25;17.98;;;;;;;2.71;94.91;99255.06;5036921;28;20068;-82
2022/03/08 05:51:38;;;;;;;51.55;16.73;;;;;;;2.68;96.42;99231.53;5055188;28;20386;-82
2022/03/08 05:54:03;;;;;;;56.05;19.25;;;;;;;2.82;97.94;99244.16;5052103;28;20029;-82
2022/03/08 05:56:29;;;;;;;48.50;20.45;;;;;;;2.96;93.23;99234.69;5049221;28;20509;-82
2022/03/08 05:58:54;;;;;;;32.50;14.25;;;;;;;2.96;93.29;99224.09;5036875;28;20033;-82
2022/03/08 06:01:20;;;;;;;45.15;14.77;;;;;;;3.21;92.12;99227.59;5053902;28;20028;-80
2022/03/08 06:03:46;;;;;;;41.78;18.58;;;;;;;3.38;89.46;99215.13;5039759;28;20401;-82
2022/03/08 06:06:12;;;;;;;32.97;13.15;;;;;;;3.53;89.25;99218.78;5054591;28;20094;-83
2022/03/08 06:08:38;;;;;;;38.22;14.30;;;;;;;3.48;87.73;99192.69;5066843;28;20078;-81
2022/03/08 06:11:04;;;;;;;42.22;13.82;;;;;;;3.59;88.13;99193.34;5036870;28;20029;-81
2022/03/08 06:13:30;;;;;;;25.20;10.25;;;;;;;3.65;88.04;99176.72;5049973;28;20044;-81
2022/03/08 06:15:56;;;;;;;39.47;14.65;;;;;;;3.66;87.25;99178.38;5034254;28;20087;-81
2022/03/08 06:18:21;;;;;;;27.13;11.13;;;;;;;3.70;87.23;99171.72;5065949;28;20405;-81
2022/03/08 06:20:47;;;;;;;24.30;10.07;;;;;;;3.65;86.61;99158.09;5050925;28;20097;-81
2022/03/08 06:23:13;;;;;;;36.15;12.15;;;;;;;3.84;86.82;99168.38;5037477;28;20139;-82
2022/03/08 06:25:38;;;;;;;21.88;11.60;;;;;;;3.95;86.08;99173.31;5030993;28;20040;-81
2022/03/08 06:28:04;;;;;;;28.90;12.27;;;;;;;4.08;84.74;99156.78;5052391;28;20044;-84
2022/03/08 06:30:29;;;;;;;22.27;10.80;;;;;;;4.06;84.07;99132.19;5053341;28;20028;-82
2022/03/08 06:32:55;;;;;;;19.35;9.50;;;;;;;4.28;83.42;99146.53;5032680;28;20036;-82
2022/03/08 06:35:21;;;;;;;30.45;12.52;;;;;;;4.34;82.80;99137.88;5029264;28;20123;-82
2022/03/08 06:37:46;;;;;;;30.90;13.07;;;;;;;4.39;82.84;99132.00;5036586;28;20040;-81
2022/03/08 06:40:12;;;;;;;24.25;9.13;;;;;;;4.39;82.07;99116.03;5051455;28;20496;-82
2022/03/08 06:42:38;;;;;;;26.35;10.90;;;;;;;4.69;80.63;99111.69;5069466;28;20115;-83
2022/03/08 06:45:05;;;;;;;26.48;14.32;;;;;;;4.75;79.97;99108.28;5066451;28;20480;-82
2022/03/08 06:47:31;;;;;;;32.20;12.80;;;;;;;4.88;79.35;99096.22;5052763;28;20044;-82
2022/03/08 06:49:56;;;;;;;25.25;13.18;;;;;;;4.97;78.96;99085.28;5067103;28;20385;-83
2022/03/08 06:52:22;;;;;;;20.33;10.13;;;;;;;5.05;78.90;99100.38;5037373;28;20039;-82
2022/03/08 06:54:48;;;;;;;15.73;8.43;;;;;;;5.04;79.32;99104.06;5049558;28;20454;-82
2022/03/08 06:57:13;;;;;;;21.77;12.15;;;;;;;5.13;79.31;99065.66;5035605;28;20063;-81
2022/03/08 06:59:39;;;;;;;26.10;11.50;;;;;;;5.21;78.75;99080.75;5059478;28;20072;-83
2022/03/08 07:02:05;;;;;;;27.80;11.30;;;;;;;5.25;79.09;99074.88;5060578;28;20024;-83
2022/03/08 07:04:31;;;;;;;29.92;13.95;;;;;;;5.27;78.90;99059.53;5029765;28;20040;-84
2022/03/08 07:06:56;;;;;;;27.02;11.57;;;;;;;5.23;79.83;99052.91;5043683;28;20035;-84
2022/03/08 07:09:23;;;;;;;27.65;13.02;;;;;;;5.21;80.87;99057.63;5058355;28;20415;-84
2022/03/08 07:11:48;;;;;;;23.63;11.65;;;;;;;5.26;81.40;99054.38;5043564;28;20051;-83
2022/03/08 07:14:15;;;;;;;19.77;10.20;;;;;;;5.16;81.90;99048.47;5042408;28;20085;-82
2022/03/08 07:16:45;;;;;;;24.85;13.25;;;;;;;5.17;82.53;99028.84;5044229;28;20103;-81
2022/03/08 07:19:13;;;;;;;25.15;12.05;;;;;;;5.20;83.31;99036.47;5042708;28;20064;-83
2022/03/08 07:21:39;;;;;;;31.83;13.05;;;;;;;5.20;84.39;99018.63;5060194;28;20036;-82
2022/03/08 07:24:05;;;;;;;29.52;14.60;;;;;;;5.13;85.17;99023.03;5062304;28;20382;-82
2022/03/08 07:26:31;;;;;;;22.20;11.00;;;;;;;5.20;84.80;99005.31;5046787;28;21779;-83
2022/03/08 07:28:57;;;;;;;24.83;12.35;;;;;;;5.30;84.92;99002.38;5045240;28;20024;-81
2022/03/08 07:31:22;;;;;;;25.60;13.50;;;;;;;5.37;85.03;98984.66;5062630;28;20072;-82
2022/03/08 07:33:48;;;;;;;24.75;11.65;;;;;;;5.32;85.53;98997.69;5042623;28;20401;-82
2022/03/08 07:36:16;;;;;;;24.58;13.23;;;;;;;5.38;86.00;98972.97;5058281;28;20118;-81
2022/03/08 07:38:42;;;;;;;22.85;10.68;;;;;;;5.39;85.65;98995.91;5041777;28;20017;-82
2022/03/08 07:41:10;;;;;;;28.33;15.52;;;;;;;5.34;87.05;98962.84;5052862;28;20043;-82
2022/03/08 07:43:36;;;;;;;23.92;11.80;;;;;;;5.30;87.46;98965.06;5049129;28;20024;-82
2022/03/08 07:46:03;;;;;;;29.45;15.38;;;;;;;5.40;87.83;98962.94;5067914;28;20028;-83
2022/03/08 07:48:29;;;;;;;32.42;15.98;;;;;;;5.37;88.48;98971.31;5031362;28;20446;-82
2022/03/08 07:50:54;;;;;;;28.30;11.82;;;;;;;5.31;89.33;98956.06;5035367;28;20078;-83
2022/03/08 07:53:20;;;;;;;32.25;15.50;;;;;;;5.31;90.45;98966.72;5049318;28;20816;-81
2022/03/08 07:55:47;;;;;;;23.52;11.93;;;;;;;5.33;91.06;98958.53;5029574;28;20425;-82
2022/03/08 07:58:15;;;;;;;27.98;12.63;;;;;;;5.33;91.46;98978.03;5064946;28;20032;-82
2022/03/08 08:00:41;;;;;;;19.33;10.68;;;;;;;5.29;91.87;98958.91;5027293;28;20064;-81
2022/03/08 08:03:07;;;;;;;21.20;11.85;;;;;;;5.04;93.26;98928.25;5052642;28;20071;-81
2022/03/08 08:05:34;;;;;;;24.20;10.50;;;;;;;5.26;93.25;98969.09;5049804;28;20385;-81
2022/03/08 08:08:04;;;;;;;34.42;16.23;;;;;;;5.33;94.51;98959.38;5050596;28;20036;-83
2022/03/08 08:10:31;;;;;;;27.17;14.40;;;;;;;5.49;94.42;98958.31;5043596;28;20102;-82
2022/03/08 08:12:57;;;;;;;24.83;11.30;;;;;;;5.32;95.02;98946.22;5048051;28;20028;-83
2022/03/08 08:15:22;;;;;;;27.05;13.00;;;;;;;5.41;95.73;98953.09;5045582;28;20036;-82
2022/03/08 08:17:48;;;;;;;19.20;11.85;;;;;;;5.44;95.95;98939.41;5060439;28;20450;-83
2022/03/08 08:20:14;;;;;;;24.23;10.60;;;;;;;5.48;95.72;98941.50;5049116;28;20093;-82
2022/03/08 08:22:40;;;;;;;29.27;15.80;;;;;;;5.59;96.23;98937.53;5070861;28;20107;-82
2022/03/08 08:25:07;;;;;;;20.45;9.52;;;;;;;5.72;95.60;98931.50;5051732;28;20037;-83
2022/03/08 08:27:34;;;;;;;25.92;12.30;;;;;;;5.80;95.68;98941.25;5035374;28;20063;-83
2022/03/08 08:29:59;;;;;;;25.25;12.05;;;;;;;5.81;95.12;98941.03;5033462;28;20113;-85
2022/03/08 08:32:26;;;;;;;21.73;11.95;;;;;;;5.67;96.61;98939.25;5051595;28;20349;-82
2022/03/08 08:34:52;;;;;;;22.63;13.25;;;;;;;5.55;97.83;98933.56;5064025;28;20461;-86
2022/03/08 08:37:18;;;;;;;22.70;10.82;;;;;;;5.48;98.74;98938.03;5069145;28;20033;-85
2022/03/08 08:39:43;;;;;;;24.02;11.57;;;;;;;5.37;99.66;98922.50;5034762;28;20109;-85
2022/03/08 08:42:09;;;;;;;22.42;14.02;;;;;;;5.40;100.00;98922.13;5035195;28;20123;-83
2022/03/08 08:44:35;;;;;;;23.75;11.30;;;;;;;5.29;100.00;98921.59;5064057;28;20063;-84
2022/03/08 08:47:01;;;;;;;20.20;10.15;;;;;;;5.25;100.00;98914.16;5072588;28;20118;-83
2022/03/08 08:49:28;;;;;;;23.08;12.25;;;;;;;5.32;100.00;98903.56;5068264;28;20043;-83
2022/03/08 08:51:55;;;;;;;17.02;8.88;;;;;;;5.27;100.00;98907.63;5051473;28;20025;-83
2022/03/08 08:54:22;;;;;;;25.75;12.23;;;;;;;5.31;100.00;98907.25;5055821;28;20036;-83
2022/03/08 08:56:48;;;;;;;35.70;14.43;;;;;;;5.33;100.00;98894.59;5064681;28;20206;-83
2022/03/08 08:59:14;;;;;;;31.52;11.20;;;;;;;5.43;100.00;98892.44;5030474;28;20047;-84
2022/03/08 09:01:39;;;;;;;28.25;13.35;;;;;;;5.40;100.00;98869.66;5046013;28;20033;-84
2022/03/08 09:04:05;;;;;;;21.42;9.80;;;;;;;5.40;100.00;98882.13;5028416;28;20032;-84
2022/03/08 09:06:30;;;;;;;27.15;13.80;;;;;;;5.20;100.00;98874.75;5028834;28;20093;-84
2022/03/08 09:08:56;;;;;;;16.70;10.32;;;;;;;5.32;100.00;98884.91;5032684;28;20047;-84
2022/03/08 09:11:23;;;;;;;20.52;10.98;;;;;;;5.31;100.00;98891.28;5065269;28;20129;-86
2022/03/08 09:13:56;;;;;;;30.88;17.75;;;;;;;5.36;100.00;98883.53;5034428;28;20037;-84
2022/03/08 09:16:25;;;;;;;23.85;12.98;;;;;;;5.29;100.00;98875.47;5049790;28;20059;-85
2022/03/08 09:18:50;;;;;;;26.42;12.50;;;;;;;5.34;100.00;98853.59;5053931;28;20667;-86
2022/03/08 09:21:16;;;;;;;26.35;10.50;;;;;;;5.34;100.00;98874.91;5030599;28;20060;-85
2022/03/08 09:23:42;;;;;;;22.35;9.88;;;;;;;5.43;100.00;98871.13;5046363;28;20040;-84
2022/03/08 09:26:08;;;;;;;19.02;10.55;;;;;;;5.47;100.00;98875.03;5059025;28;20106;-85
2022/03/08 09:28:34;;;;;;;16.77;7.82;;;;;;;5.49;100.00;98870.34;5060968;28;20032;-84
2022/03/08 09:31:00;;;;;;;12.07;6.10;;;;;;;5.57;100.00;98874.75;5031866;28;20028;-83
2022/03/08 09:33:26;;;;;;;16.98;8.68;;;;;;;5.53;100.00;98845.00;5048888;28;20036;-86
2022/03/08 09:35:52;;;;;;;8.07;3.60;;;;;;;5.67;100.00;98865.41;5051023;28;20036;-84
2022/03/08 09:38:21;;;;;;;7.57;3.60;;;;;;;5.85;100.00;98859.63;5035791;28;20101;-83
2022/03/08 09:40:50;;;;;;;1.88;1.65;;;;;;;5.94;100.00;98855.84;5027983;28;20062;-85
2022/03/08 09:43:16;;;;;;;5.80;4.43;;;;;;;6.11;100.00;98843.06;5037969;28;20123;-84
2022/03/08 09:45:41;;;;;;;2.45;2.08;;;;;;;6.15;100.00;98838.16;5071495;28;20043;-84
2022/03/08 09:48:07;;;;;;;8.35;3.97;;;;;;;6.22;100.00;98835.50;5061419;28;20036;-84
2022/03/08 09:50:33;;;;;;;3.70;2.63;;;;;;;6.12;100.00;98810.00;5069323;28;20043;-85
2022/03/08 09:53:05;;;;;;;6.82;3.78;;;;;;;6.36;100.00;98842.59;5036395;28;20036;-84
2022/03/08 09:55:31;;;;;;;7.13;3.75;;;;;;;6.40;100.00;98859.84;5052485;28;20070;-85
2022/03/08 09:57:56;;;;;;;5.55;2.60;;;;;;;6.55;100.00;98867.78;5037579;28;20079;-84
2022/03/08 10:00:27;;;;;;;8.55;3.55;;;;;;;6.88;100.00;98849.25;5036908;28;20043;-84
2022/03/08 10:02:57;;;;;;;6.72;3.67;;;;;;;6.90;100.00;98871.22;5038458;28;20090;-85
2022/03/08 10:05:28;;;;;;;6.68;3.30;;;;;;;7.10;100.00;98886.56;5070649;28;20036;-85
2022/03/08 10:08:10;;;;;;;7.30;2.78;;;;;;;8.07;100.00;98855.88;5045826;28;20512;-85
2022/03/08 10:10:50;;;;;;;5.47;2.42;;;;;;;8.86;100.00;98870.22;5037868;28;20047;-83
2022/03/08 10:13:16;;;;;;;4.63;3.45;;;;;;;9.36;100.00;98870.41;5058435;28;20050;-84
2022/03/08 10:15:42;;;;;;;2.70;1.80;;;;;;;10.33;100.00;98882.59;5040267;28;20048;-85
2022/03/08 10:18:08;;;;;;;1.00;0.90;;;;;;;10.70;100.00;98866.53;5046667;28;20040;-85
2022/03/08 10:20:34;;;;;;;2.13;1.10;;;;;;;10.45;100.00;98895.28;5054625;28;20024;-84
2022/03/08 10:23:02;;;;;;;1.90;1.17;;;;;;;10.78;100.00;98889.59;5054680;28;20036;-84
2022/03/08 10:25:30;;;;;;;2.10;1.30;;;;;;;12.57;93.81;98896.25;5054317;28;20066;-85
2022/03/08 10:27:56;;;;;;;1.67;1.17;;;;;;;13.02;90.36;98887.53;5058468;28;20067;-84
2022/03/08 10:30:44;;;;;;;1.30;1.00;;;;;;;12.45;93.12;98877.38;5054911;28;20060;-83
2022/03/08 10:33:10;;;;;;;1.00;0.88;;;;;;;13.28;89.72;98892.44;5052210;28;20033;-84
2022/03/08 10:35:42;;;;;;;1.23;0.68;;;;;;;13.71;86.18;98884.91;5055959;28;20673;-87
2022/03/08 10:38:12;;;;;;;2.65;0.82;;;;;;;13.13;87.33;98879.44;5060027;28;20513;-84
2022/03/08 10:40:38;;;;;;;2.30;0.98;;;;;;;12.35;89.76;98853.69;5054280;28;20536;-85
2022/03/08 10:43:09;;;;;;;0.55;0.55;;;;;;;13.54;86.88;98876.75;5037801;28;20450;-83
2022/03/08 10:45:36;;;;;;;1.40;1.00;;;;;;;13.17;85.65;98891.38;5037892;28;20032;-84
2022/03/08 10:48:07;;;;;;;2.55;1.10;;;;;;;13.42;84.23;98871.41;5043091;28;20458;-85
2022/03/08 10:50:34;;;;;;;2.38;1.52;;;;;;;13.88;80.79;98861.41;5058023;28;20039;-84
2022/03/08 10:53:01;;;;;;;2.28;1.45;;;;;;;13.75;81.39;98877.94;5038228;28;20035;-84
2022/03/08 10:55:36;;;;;;;0.68;0.68;;;;;;;13.05;85.00;98885.19;5054028;28;20039;-84
2022/03/08 10:58:10;;;;;;;0.80;0.80;;;;;;;13.13;85.73;98895.63;5047391;28;20036;-85
2022/03/08 11:00:39;;;;;;;1.95;1.30;;;;;;;12.29;87.12;98898.56;5076457;28;20047;-84
2022/03/08 11:03:08;;;;;;;2.97;1.15;;;;;;;11.54;91.02;98896.34;5055395;28;20050;-83
2022/03/08 11:05:36;;;;;;;3.05;1.55;;;;;;;11.74;91.49;98927.56;5054012;28;20032;-84
2022/03/08 11:08:03;;;;;;;3.47;2.05;;;;;;;11.31;93.70;98933.91;5070238;28;20070;-84
2022/03/08 11:10:30;;;;;;;3.83;1.58;;;;;;;12.34;90.27;98940.19;5053587;28;20123;-88
2022/03/08 11:12:56;;;;;;;5.05;1.85;;;;;;;15.53;77.48;98922.25;5062713;28;20036;-84
2022/03/08 11:15:23;;;;;;;14.65;2.35;;;;;;;17.25;68.84;98932.19;5060451;28;20129;-84
2022/03/08 11:17:51;;;;;;;4.60;2.78;;;;;;;18.94;62.55;98939.84;5037036;28;20040;-87
2022/03/08 11:20:18;;;;;;;5.70;1.17;;;;;;;18.34;61.87;98940.41;5053094;28;20036;-87